sensor_id;sensor_type;location;lat;lon;timestamp;P1;durP1;ratioP1;P2;durP2;ratioP2
38332;SDS011;25748;46.670;14.272;2023-02-16T00:00:07;5.67;;;2.90;;
38332;SDS011;25748;46.670;14.272;2023-02-16T00:02:46;8.23;;;3.40;;
38332;SDS011;25748;46.670;14.272;2023-02-16T00:05:54;9.17;;;3.80;;
38332;SDS011;25748;46.670;14.272;2023-02-16T00:08:02;10.67;;;4.30;;
38332;SDS011;25748;46.670;14.272;2023-02-16T00:10:30;8.67;;;3.13;;
38332;SDS011;25748;46.670;14.272;2023-02-16T00:12:57;8.27;;;3.53;;
38332;SDS011;25748;46.670;14.272;2023-02-16T00:15:42;10.83;;;4.60;;
38332;SDS011;25748;46.670;14.272;2023-02-16T00:18:13;10.30;;;4.33;;
38332;SDS011;25748;46.670;14.272;2023-02-16T00:20:41;9.43;;;3.97;;
38332;SDS011;25748;46.670;14.272;2023-02-16T00:23:07;11.43;;;4.80;;
38332;SDS011;25748;46.670;14.272;2023-02-16T00:25:32;12.03;;;6.20;;
38332;SDS011;25748;46.670;14.272;2023-02-16T00:27:58;16.20;;;5.53;;
38332;SDS011;25748;46.670;14.272;2023-02-16T00:30:26;15.43;;;5.27;;
38332;SDS011;25748;46.670;14.272;2023-02-16T00:32:52;9.13;;;4.43;;
38332;SDS011;25748;46.670;14.272;2023-02-16T00:35:18;13.93;;;4.50;;
38332;SDS011;25748;46.670;14.272;2023-02-16T00:37:45;5.63;;;3.33;;
38332;SDS011;25748;46.670;14.272;2023-02-16T00:40:13;9.13;;;3.50;;
38332;SDS011;25748;46.670;14.272;2023-02-16T00:42:39;7.90;;;3.93;;
38332;SDS011;25748;46.670;14.272;2023-02-16T00:45:19;6.87;;;3.70;;
38332;SDS011;25748;46.670;14.272;2023-02-16T00:47:46;9.27;;;3.50;;
38332;SDS011;25748;46.670;14.272;2023-02-16T00:50:18;8.20;;;3.63;;
38332;SDS011;25748;46.670;14.272;2023-02-16T00:52:52;7.93;;;3.43;;
38332;SDS011;25748;46.670;14.272;2023-02-16T00:58:11;9.20;;;3.87;;
38332;SDS011;25748;46.670;14.272;2023-02-16T01:00:50;6.67;;;3.50;;
38332;SDS011;25748;46.670;14.272;2023-02-16T01:03:23;7.13;;;3.70;;
38332;SDS011;25748;46.670;14.272;2023-02-16T01:05:51;8.70;;;3.23;;
38332;SDS011;25748;46.670;14.272;2023-02-16T01:08:59;7.30;;;3.00;;
38332;SDS011;25748;46.670;14.272;2023-02-16T01:11:53;7.80;;;3.03;;
38332;SDS011;25748;46.670;14.272;2023-02-16T01:14:19;7.73;;;2.87;;
38332;SDS011;25748;46.670;14.272;2023-02-16T01:16:44;6.47;;;3.17;;
38332;SDS011;25748;46.670;14.272;2023-02-16T01:19:11;16.00;;;3.17;;
38332;SDS011;25748;46.670;14.272;2023-02-16T01:21:37;9.43;;;3.43;;
38332;SDS011;25748;46.670;14.272;2023-02-16T01:24:03;7.90;;;3.37;;
38332;SDS011;25748;46.670;14.272;2023-02-16T01:26:29;7.23;;;2.90;;
38332;SDS011;25748;46.670;14.272;2023-02-16T01:29:01;6.43;;;3.20;;
38332;SDS011;25748;46.670;14.272;2023-02-16T01:31:27;7.03;;;3.43;;
38332;SDS011;25748;46.670;14.272;2023-02-16T01:33:52;5.57;;;3.17;;
38332;SDS011;25748;46.670;14.272;2023-02-16T01:36:22;7.47;;;3.00;;
38332;SDS011;25748;46.670;14.272;2023-02-16T01:38:52;5.63;;;2.80;;
38332;SDS011;25748;46.670;14.272;2023-02-16T01:44:02;4.00;;;2.20;;
38332;SDS011;25748;46.670;14.272;2023-02-16T01:49:06;8.52;;;3.20;;
38332;SDS011;25748;46.670;14.272;2023-02-16T01:51:40;8.47;;;3.17;;
38332;SDS011;25748;46.670;14.272;2023-02-16T02:00:06;4.33;;;2.73;;
38332;SDS011;25748;46.670;14.272;2023-02-16T02:02:38;7.33;;;4.10;;
38332;SDS011;25748;46.670;14.272;2023-02-16T02:10:33;7.38;;;3.45;;
38332;SDS011;25748;46.670;14.272;2023-02-16T02:13:21;6.17;;;3.43;;
38332;SDS011;25748;46.670;14.272;2023-02-16T02:16:01;5.25;;;1.70;;
38332;SDS011;25748;46.670;14.272;2023-02-16T02:18:29;10.20;;;4.27;;
38332;SDS011;25748;46.670;14.272;2023-02-16T02:21:08;4.87;;;2.60;;
38332;SDS011;25748;46.670;14.272;2023-02-16T02:27:10;6.27;;;2.27;;
38332;SDS011;25748;46.670;14.272;2023-02-16T02:48:05;4.93;;;2.43;;
38332;SDS011;25748;46.670;14.272;2023-02-16T02:53:03;4.97;;;2.97;;
38332;SDS011;25748;46.670;14.272;2023-02-16T02:55:32;6.13;;;2.67;;
38332;SDS011;25748;46.670;14.272;2023-02-16T02:58:20;7.70;;;2.93;;
38332;SDS011;25748;46.670;14.272;2023-02-16T03:01:06;6.17;;;2.63;;
38332;SDS011;25748;46.670;14.272;2023-02-16T03:03:35;6.90;;;2.97;;
38332;SDS011;25748;46.670;14.272;2023-02-16T03:08:39;5.23;;;2.87;;
38332;SDS011;25748;46.670;14.272;2023-02-16T03:11:11;6.60;;;3.00;;
38332;SDS011;25748;46.670;14.272;2023-02-16T03:16:28;16.70;;;3.10;;
38332;SDS011;25748;46.670;14.272;2023-02-16T03:21:42;3.60;;;2.17;;
38332;SDS011;25748;46.670;14.272;2023-02-16T03:24:28;5.53;;;2.47;;
38332;SDS011;25748;46.670;14.272;2023-02-16T03:27:16;5.50;;;2.97;;
38332;SDS011;25748;46.670;14.272;2023-02-16T03:30:03;4.57;;;2.33;;
38332;SDS011;25748;46.670;14.272;2023-02-16T03:32:31;3.03;;;2.03;;
38332;SDS011;25748;46.670;14.272;2023-02-16T03:34:57;5.90;;;2.83;;
38332;SDS011;25748;46.670;14.272;2023-02-16T03:37:23;7.10;;;3.73;;
38332;SDS011;25748;46.670;14.272;2023-02-16T03:39:49;4.83;;;2.53;;
38332;SDS011;25748;46.670;14.272;2023-02-16T03:42:33;15.47;;;3.93;;
38332;SDS011;25748;46.670;14.272;2023-02-16T03:44:59;8.70;;;3.23;;
38332;SDS011;25748;46.670;14.272;2023-02-16T03:47:24;4.53;;;3.00;;
38332;SDS011;25748;46.670;14.272;2023-02-16T03:49:50;6.93;;;2.97;;
38332;SDS011;25748;46.670;14.272;2023-02-16T03:52:16;6.83;;;3.27;;
38332;SDS011;25748;46.670;14.272;2023-02-16T03:54:41;7.03;;;3.13;;
38332;SDS011;25748;46.670;14.272;2023-02-16T03:57:07;3.17;;;2.07;;
38332;SDS011;25748;46.670;14.272;2023-02-16T03:59:33;5.90;;;2.53;;
38332;SDS011;25748;46.670;14.272;2023-02-16T04:01:58;4.27;;;2.87;;
38332;SDS011;25748;46.670;14.272;2023-02-16T04:04:24;9.53;;;3.43;;
38332;SDS011;25748;46.670;14.272;2023-02-16T04:06:50;5.70;;;2.60;;
38332;SDS011;25748;46.670;14.272;2023-02-16T04:09:16;3.47;;;2.23;;
38332;SDS011;25748;46.670;14.272;2023-02-16T04:11:41;5.57;;;3.20;;
38332;SDS011;25748;46.670;14.272;2023-02-16T04:14:25;8.37;;;2.60;;
38332;SDS011;25748;46.670;14.272;2023-02-16T04:16:51;6.83;;;3.27;;
38332;SDS011;25748;46.670;14.272;2023-02-16T04:19:17;6.07;;;2.93;;
38332;SDS011;25748;46.670;14.272;2023-02-16T04:21:42;4.60;;;2.77;;
38332;SDS011;25748;46.670;14.272;2023-02-16T04:24:08;4.67;;;1.97;;
38332;SDS011;25748;46.670;14.272;2023-02-16T04:26:34;4.90;;;2.87;;
38332;SDS011;25748;46.670;14.272;2023-02-16T04:28:59;6.43;;;2.87;;
38332;SDS011;25748;46.670;14.272;2023-02-16T04:31:25;6.67;;;2.80;;
38332;SDS011;25748;46.670;14.272;2023-02-16T04:33:50;7.20;;;2.60;;
38332;SDS011;25748;46.670;14.272;2023-02-16T04:36:16;7.40;;;2.20;;
38332;SDS011;25748;46.670;14.272;2023-02-16T04:38:42;2.63;;;1.90;;
38332;SDS011;25748;46.670;14.272;2023-02-16T04:41:07;2.87;;;1.73;;
38332;SDS011;25748;46.670;14.272;2023-02-16T04:43:33;4.23;;;2.10;;
38332;SDS011;25748;46.670;14.272;2023-02-16T04:45:59;4.73;;;2.97;;
38332;SDS011;25748;46.670;14.272;2023-02-16T04:48:25;4.83;;;2.30;;
38332;SDS011;25748;46.670;14.272;2023-02-16T04:50:50;8.60;;;2.90;;
38332;SDS011;25748;46.670;14.272;2023-02-16T04:53:16;9.07;;;3.00;;
38332;SDS011;25748;46.670;14.272;2023-02-16T04:55:46;6.33;;;3.37;;
38332;SDS011;25748;46.670;14.272;2023-02-16T04:58:13;9.93;;;3.70;;
38332;SDS011;25748;46.670;14.272;2023-02-16T05:00:39;5.23;;;2.90;;
38332;SDS011;25748;46.670;14.272;2023-02-16T05:03:05;4.43;;;2.70;;
38332;SDS011;25748;46.670;14.272;2023-02-16T05:05:31;3.33;;;2.43;;
38332;SDS011;25748;46.670;14.272;2023-02-16T05:07:57;6.10;;;1.50;;
38332;SDS011;25748;46.670;14.272;2023-02-16T05:10:23;3.47;;;1.97;;
38332;SDS011;25748;46.670;14.272;2023-02-16T05:12:48;7.50;;;2.53;;
38332;SDS011;25748;46.670;14.272;2023-02-16T05:15:33;7.17;;;3.20;;
38332;SDS011;25748;46.670;14.272;2023-02-16T05:17:58;7.23;;;3.57;;
38332;SDS011;25748;46.670;14.272;2023-02-16T05:20:24;4.07;;;2.80;;
38332;SDS011;25748;46.670;14.272;2023-02-16T05:23:10;8.23;;;2.83;;
38332;SDS011;25748;46.670;14.272;2023-02-16T05:25:35;3.80;;;2.70;;
38332;SDS011;25748;46.670;14.272;2023-02-16T05:28:01;8.37;;;2.87;;
38332;SDS011;25748;46.670;14.272;2023-02-16T05:30:27;5.53;;;3.07;;
38332;SDS011;25748;46.670;14.272;2023-02-16T05:32:53;9.83;;;3.27;;
38332;SDS011;25748;46.670;14.272;2023-02-16T05:35:18;7.57;;;3.30;;
38332;SDS011;25748;46.670;14.272;2023-02-16T05:37:44;8.03;;;3.03;;
38332;SDS011;25748;46.670;14.272;2023-02-16T05:40:10;3.17;;;2.43;;
38332;SDS011;25748;46.670;14.272;2023-02-16T05:42:36;5.43;;;2.60;;
38332;SDS011;25748;46.670;14.272;2023-02-16T05:45:01;8.23;;;2.37;;
38332;SDS011;25748;46.670;14.272;2023-02-16T05:47:27;5.10;;;2.47;;
38332;SDS011;25748;46.670;14.272;2023-02-16T05:49:53;3.90;;;1.87;;
38332;SDS011;25748;46.670;14.272;2023-02-16T05:52:18;7.03;;;3.13;;
38332;SDS011;25748;46.670;14.272;2023-02-16T05:54:44;4.50;;;1.97;;
38332;SDS011;25748;46.670;14.272;2023-02-16T05:57:10;2.87;;;2.13;;
38332;SDS011;25748;46.670;14.272;2023-02-16T05:59:35;5.97;;;3.57;;
38332;SDS011;25748;46.670;14.272;2023-02-16T06:02:01;9.00;;;2.90;;
38332;SDS011;25748;46.670;14.272;2023-02-16T06:04:27;8.97;;;2.57;;
38332;SDS011;25748;46.670;14.272;2023-02-16T06:06:52;4.17;;;2.00;;
38332;SDS011;25748;46.670;14.272;2023-02-16T06:09:18;5.90;;;3.03;;
38332;SDS011;25748;46.670;14.272;2023-02-16T06:11:44;5.90;;;3.60;;
38332;SDS011;25748;46.670;14.272;2023-02-16T06:14:17;4.50;;;2.80;;
38332;SDS011;25748;46.670;14.272;2023-02-16T06:16:44;5.27;;;3.50;;
38332;SDS011;25748;46.670;14.272;2023-02-16T06:19:12;12.10;;;2.83;;
38332;SDS011;25748;46.670;14.272;2023-02-16T06:21:39;4.50;;;2.37;;
38332;SDS011;25748;46.670;14.272;2023-02-16T06:24:05;7.57;;;2.63;;
38332;SDS011;25748;46.670;14.272;2023-02-16T06:26:32;6.13;;;3.03;;
38332;SDS011;25748;46.670;14.272;2023-02-16T06:28:58;7.53;;;2.67;;
38332;SDS011;25748;46.670;14.272;2023-02-16T06:31:24;11.20;;;2.93;;
38332;SDS011;25748;46.670;14.272;2023-02-16T06:33:50;9.93;;;4.23;;
38332;SDS011;25748;46.670;14.272;2023-02-16T06:36:16;8.20;;;4.27;;
38332;SDS011;25748;46.670;14.272;2023-02-16T06:38:42;9.13;;;3.87;;
38332;SDS011;25748;46.670;14.272;2023-02-16T06:41:08;10.73;;;4.37;;
38332;SDS011;25748;46.670;14.272;2023-02-16T06:43:34;10.47;;;3.10;;
38332;SDS011;25748;46.670;14.272;2023-02-16T06:45:59;13.90;;;3.40;;
38332;SDS011;25748;46.670;14.272;2023-02-16T06:48:25;6.17;;;3.37;;
38332;SDS011;25748;46.670;14.272;2023-02-16T06:50:51;6.57;;;2.70;;
38332;SDS011;25748;46.670;14.272;2023-02-16T06:53:17;8.93;;;4.13;;
38332;SDS011;25748;46.670;14.272;2023-02-16T06:55:44;11.60;;;3.70;;
38332;SDS011;25748;46.670;14.272;2023-02-16T06:58:10;7.80;;;4.03;;
38332;SDS011;25748;46.670;14.272;2023-02-16T07:00:36;57.43;;;13.87;;
38332;SDS011;25748;46.670;14.272;2023-02-16T07:03:02;14.70;;;5.97;;
38332;SDS011;25748;46.670;14.272;2023-02-16T07:05:28;11.83;;;5.40;;
38332;SDS011;25748;46.670;14.272;2023-02-16T07:07:53;11.33;;;4.27;;
38332;SDS011;25748;46.670;14.272;2023-02-16T07:10:19;11.23;;;3.77;;
38332;SDS011;25748;46.670;14.272;2023-02-16T07:12:45;5.97;;;4.17;;
38332;SDS011;25748;46.670;14.272;2023-02-16T07:15:11;7.80;;;4.03;;
38332;SDS011;25748;46.670;14.272;2023-02-16T07:17:37;9.67;;;4.27;;
38332;SDS011;25748;46.670;14.272;2023-02-16T07:20:03;10.90;;;5.40;;
38332;SDS011;25748;46.670;14.272;2023-02-16T07:22:29;9.63;;;5.17;;
38332;SDS011;25748;46.670;14.272;2023-02-16T07:24:56;9.63;;;4.10;;
38332;SDS011;25748;46.670;14.272;2023-02-16T07:27:23;9.10;;;4.77;;
38332;SDS011;25748;46.670;14.272;2023-02-16T07:29:49;10.67;;;3.90;;
38332;SDS011;25748;46.670;14.272;2023-02-16T07:32:15;7.57;;;4.87;;
38332;SDS011;25748;46.670;14.272;2023-02-16T07:34:40;7.90;;;4.83;;
38332;SDS011;25748;46.670;14.272;2023-02-16T07:37:06;12.17;;;4.73;;
38332;SDS011;25748;46.670;14.272;2023-02-16T07:39:35;9.73;;;4.53;;
38332;SDS011;25748;46.670;14.272;2023-02-16T07:42:00;7.40;;;3.63;;
38332;SDS011;25748;46.670;14.272;2023-02-16T07:44:26;18.83;;;3.90;;
38332;SDS011;25748;46.670;14.272;2023-02-16T07:46:52;12.23;;;4.80;;
38332;SDS011;25748;46.670;14.272;2023-02-16T07:49:17;9.90;;;4.77;;
38332;SDS011;25748;46.670;14.272;2023-02-16T07:51:43;7.97;;;3.87;;
38332;SDS011;25748;46.670;14.272;2023-02-16T07:54:08;11.13;;;3.80;;
38332;SDS011;25748;46.670;14.272;2023-02-16T07:56:34;11.23;;;5.30;;
38332;SDS011;25748;46.670;14.272;2023-02-16T07:59:00;6.57;;;3.90;;
38332;SDS011;25748;46.670;14.272;2023-02-16T08:01:27;9.67;;;3.63;;
38332;SDS011;25748;46.670;14.272;2023-02-16T08:03:54;9.30;;;3.77;;
38332;SDS011;25748;46.670;14.272;2023-02-16T08:06:20;7.20;;;4.03;;
38332;SDS011;25748;46.670;14.272;2023-02-16T08:08:46;8.30;;;3.90;;
38332;SDS011;25748;46.670;14.272;2023-02-16T08:11:13;12.15;;;4.30;;
38332;SDS011;25748;46.670;14.272;2023-02-16T08:13:46;7.82;;;4.15;;
38332;SDS011;25748;46.670;14.272;2023-02-16T08:16:16;6.40;;;3.78;;
38332;SDS011;25748;46.670;14.272;2023-02-16T08:18:44;5.32;;;3.15;;
38332;SDS011;25748;46.670;14.272;2023-02-16T08:21:11;14.75;;;3.83;;
38332;SDS011;25748;46.670;14.272;2023-02-16T08:23:41;8.90;;;3.97;;
38332;SDS011;25748;46.670;14.272;2023-02-16T08:26:12;8.13;;;3.75;;
38332;SDS011;25748;46.670;14.272;2023-02-16T08:28:41;9.20;;;4.13;;
38332;SDS011;25748;46.670;14.272;2023-02-16T08:31:10;6.72;;;3.35;;
38332;SDS011;25748;46.670;14.272;2023-02-16T08:33:41;11.27;;;4.05;;
38332;SDS011;25748;46.670;14.272;2023-02-16T08:36:15;12.43;;;4.70;;
38332;SDS011;25748;46.670;14.272;2023-02-16T08:38:41;6.78;;;3.75;;
38332;SDS011;25748;46.670;14.272;2023-02-16T08:41:07;13.88;;;5.63;;
38332;SDS011;25748;46.670;14.272;2023-02-16T08:43:33;9.43;;;4.28;;
38332;SDS011;25748;46.670;14.272;2023-02-16T08:45:59;11.18;;;4.93;;
38332;SDS011;25748;46.670;14.272;2023-02-16T08:48:25;9.27;;;4.28;;
38332;SDS011;25748;46.670;14.272;2023-02-16T08:50:53;8.10;;;3.67;;
38332;SDS011;25748;46.670;14.272;2023-02-16T08:53:22;8.68;;;4.10;;
38332;SDS011;25748;46.670;14.272;2023-02-16T08:55:55;9.75;;;3.95;;
38332;SDS011;25748;46.670;14.272;2023-02-16T08:58:23;7.70;;;3.63;;
38332;SDS011;25748;46.670;14.272;2023-02-16T09:00:53;8.50;;;4.20;;
38332;SDS011;25748;46.670;14.272;2023-02-16T09:03:20;8.45;;;4.30;;
38332;SDS011;25748;46.670;14.272;2023-02-16T09:05:46;9.23;;;3.70;;
38332;SDS011;25748;46.670;14.272;2023-02-16T09:08:13;14.95;;;4.10;;
38332;SDS011;25748;46.670;14.272;2023-02-16T09:10:39;8.98;;;3.95;;
38332;SDS011;25748;46.670;14.272;2023-02-16T09:13:05;9.18;;;4.63;;
38332;SDS011;25748;46.670;14.272;2023-02-16T09:15:34;7.28;;;3.72;;
38332;SDS011;25748;46.670;14.272;2023-02-16T09:18:01;9.20;;;3.72;;
38332;SDS011;25748;46.670;14.272;2023-02-16T09:20:27;6.80;;;3.67;;
38332;SDS011;25748;46.670;14.272;2023-02-16T09:22:53;6.20;;;3.72;;
38332;SDS011;25748;46.670;14.272;2023-02-16T09:25:19;9.93;;;3.20;;
38332;SDS011;25748;46.670;14.272;2023-02-16T09:27:46;7.43;;;3.92;;
38332;SDS011;25748;46.670;14.272;2023-02-16T09:30:11;8.35;;;3.53;;
38332;SDS011;25748;46.670;14.272;2023-02-16T09:32:37;12.18;;;4.47;;
38332;SDS011;25748;46.670;14.272;2023-02-16T09:35:04;10.02;;;3.58;;
38332;SDS011;25748;46.670;14.272;2023-02-16T09:37:30;12.40;;;3.92;;
38332;SDS011;25748;46.670;14.272;2023-02-16T09:39:57;8.57;;;3.28;;
38332;SDS011;25748;46.670;14.272;2023-02-16T09:42:30;6.40;;;2.88;;
38332;SDS011;25748;46.670;14.272;2023-02-16T09:45:14;3.90;;;2.65;;
38332;SDS011;25748;46.670;14.272;2023-02-16T09:47:42;9.23;;;3.45;;
38332;SDS011;25748;46.670;14.272;2023-02-16T09:50:16;6.82;;;2.83;;
38332;SDS011;25748;46.670;14.272;2023-02-16T09:55:16;4.80;;;2.67;;
38332;SDS011;25748;46.670;14.272;2023-02-16T10:03:22;4.70;;;2.13;;
38332;SDS011;25748;46.670;14.272;2023-02-16T10:08:30;5.90;;;2.72;;
38332;SDS011;25748;46.670;14.272;2023-02-16T10:14:00;5.05;;;2.22;;
38332;SDS011;25748;46.670;14.272;2023-02-16T10:16:34;5.43;;;2.95;;
38332;SDS011;25748;46.670;14.272;2023-02-16T10:19:10;10.23;;;3.10;;
38332;SDS011;25748;46.670;14.272;2023-02-16T10:21:48;8.65;;;3.35;;
38332;SDS011;25748;46.670;14.272;2023-02-16T10:24:17;10.82;;;3.58;;
38332;SDS011;25748;46.670;14.272;2023-02-16T10:26:44;5.72;;;3.40;;
38332;SDS011;25748;46.670;14.272;2023-02-16T10:29:17;6.85;;;2.63;;
38332;SDS011;25748;46.670;14.272;2023-02-16T10:34:49;5.30;;;2.13;;
38332;SDS011;25748;46.670;14.272;2023-02-16T10:48:07;5.65;;;2.03;;
38332;SDS011;25748;46.670;14.272;2023-02-16T10:50:41;5.47;;;2.63;;
38332;SDS011;25748;46.670;14.272;2023-02-16T10:53:14;5.43;;;2.08;;
38332;SDS011;25748;46.670;14.272;2023-02-16T10:56:01;5.55;;;2.20;;
38332;SDS011;25748;46.670;14.272;2023-02-16T10:59:04;7.22;;;2.17;;
38332;SDS011;25748;46.670;14.272;2023-02-16T11:01:45;4.80;;;2.55;;
38332;SDS011;25748;46.670;14.272;2023-02-16T11:09:34;4.28;;;2.00;;
38332;SDS011;25748;46.670;14.272;2023-02-16T11:14:53;5.30;;;2.50;;
38332;SDS011;25748;46.670;14.272;2023-02-16T11:17:22;8.10;;;2.95;;
38332;SDS011;25748;46.670;14.272;2023-02-16T11:19:56;6.68;;;2.75;;
38332;SDS011;25748;46.670;14.272;2023-02-16T11:22:34;8.43;;;3.50;;
38332;SDS011;25748;46.670;14.272;2023-02-16T11:27:49;10.48;;;5.07;;
38332;SDS011;25748;46.670;14.272;2023-02-16T11:30:32;10.95;;;5.30;;
38332;SDS011;25748;46.670;14.272;2023-02-16T11:32:59;14.52;;;6.22;;
38332;SDS011;25748;46.670;14.272;2023-02-16T11:35:26;10.45;;;5.18;;
38332;SDS011;25748;46.670;14.272;2023-02-16T11:37:55;16.05;;;5.45;;
38332;SDS011;25748;46.670;14.272;2023-02-16T11:40:22;10.68;;;5.07;;
38332;SDS011;25748;46.670;14.272;2023-02-16T11:42:51;14.45;;;5.35;;
38332;SDS011;25748;46.670;14.272;2023-02-16T11:45:23;15.15;;;5.78;;
38332;SDS011;25748;46.670;14.272;2023-02-16T11:47:56;18.45;;;6.03;;
38332;SDS011;25748;46.670;14.272;2023-02-16T11:50:33;11.05;;;5.95;;
38332;SDS011;25748;46.670;14.272;2023-02-16T11:55:34;19.45;;;5.95;;
38332;SDS011;25748;46.670;14.272;2023-02-16T11:58:21;17.08;;;5.90;;
38332;SDS011;25748;46.670;14.272;2023-02-16T12:03:33;11.10;;;5.97;;
38332;SDS011;25748;46.670;14.272;2023-02-16T12:11:29;11.20;;;6.30;;
38332;SDS011;25748;46.670;14.272;2023-02-16T12:19:41;16.15;;;5.68;;
38332;SDS011;25748;46.670;14.272;2023-02-16T12:33:57;8.90;;;4.50;;
38332;SDS011;25748;46.670;14.272;2023-02-16T12:45:17;9.00;;;5.28;;
38332;SDS011;25748;46.670;14.272;2023-02-16T12:52:47;8.98;;;4.38;;
38332;SDS011;25748;46.670;14.272;2023-02-16T12:55:20;15.52;;;5.03;;
38332;SDS011;25748;46.670;14.272;2023-02-16T13:05:45;9.60;;;5.00;;
38332;SDS011;25748;46.670;14.272;2023-02-16T13:13:44;16.33;;;4.95;;
38332;SDS011;25748;46.670;14.272;2023-02-16T13:16:22;12.85;;;4.50;;
38332;SDS011;25748;46.670;14.272;2023-02-16T13:18:57;10.07;;;4.85;;
38332;SDS011;25748;46.670;14.272;2023-02-16T13:44:16;5.45;;;3.30;;
38332;SDS011;25748;46.670;14.272;2023-02-16T13:46:46;11.88;;;3.63;;
38332;SDS011;25748;46.670;14.272;2023-02-16T13:52:07;11.38;;;3.92;;
38332;SDS011;25748;46.670;14.272;2023-02-16T13:54:51;8.00;;;4.25;;
38332;SDS011;25748;46.670;14.272;2023-02-16T14:05:37;10.23;;;4.35;;
38332;SDS011;25748;46.670;14.272;2023-02-16T14:08:13;9.57;;;3.92;;
38332;SDS011;25748;46.670;14.272;2023-02-16T14:18:57;8.85;;;3.67;;
38332;SDS011;25748;46.670;14.272;2023-02-16T14:24:05;7.43;;;3.65;;
38332;SDS011;25748;46.670;14.272;2023-02-16T14:26:55;6.90;;;3.75;;
38332;SDS011;25748;46.670;14.272;2023-02-16T14:29:27;8.05;;;3.85;;
38332;SDS011;25748;46.670;14.272;2023-02-16T14:32:05;8.30;;;3.55;;
38332;SDS011;25748;46.670;14.272;2023-02-16T14:37:53;9.38;;;4.40;;
38332;SDS011;25748;46.670;14.272;2023-02-16T14:43:19;7.25;;;3.53;;
38332;SDS011;25748;46.670;14.272;2023-02-16T14:45:54;5.95;;;3.67;;
38332;SDS011;25748;46.670;14.272;2023-02-16T15:00:20;6.95;;;3.28;;
38332;SDS011;25748;46.670;14.272;2023-02-16T15:03:01;5.57;;;3.30;;
38332;SDS011;25748;46.670;14.272;2023-02-16T15:05:58;7.97;;;2.80;;
38332;SDS011;25748;46.670;14.272;2023-02-16T15:08:28;7.57;;;2.33;;
38332;SDS011;25748;46.670;14.272;2023-02-16T15:10:59;6.63;;;2.38;;
38332;SDS011;25748;46.670;14.272;2023-02-16T15:13:30;7.40;;;2.80;;
38332;SDS011;25748;46.670;14.272;2023-02-16T15:16:01;5.93;;;2.63;;
38332;SDS011;25748;46.670;14.272;2023-02-16T15:18:30;6.20;;;3.40;;
38332;SDS011;25748;46.670;14.272;2023-02-16T15:21:01;5.65;;;2.85;;
38332;SDS011;25748;46.670;14.272;2023-02-16T15:23:28;4.82;;;2.92;;
38332;SDS011;25748;46.670;14.272;2023-02-16T15:26:00;7.43;;;2.85;;
38332;SDS011;25748;46.670;14.272;2023-02-16T15:28:33;5.88;;;2.55;;
38332;SDS011;25748;46.670;14.272;2023-02-16T15:31:04;6.85;;;2.70;;
38332;SDS011;25748;46.670;14.272;2023-02-16T15:36:06;15.02;;;3.58;;
38332;SDS011;25748;46.670;14.272;2023-02-16T15:41:24;8.43;;;3.05;;
38332;SDS011;25748;46.670;14.272;2023-02-16T15:43:55;7.00;;;3.42;;
38332;SDS011;25748;46.670;14.272;2023-02-16T15:49:19;8.05;;;3.08;;
38332;SDS011;25748;46.670;14.272;2023-02-16T15:51:49;13.07;;;3.17;;
38332;SDS011;25748;46.670;14.272;2023-02-16T15:56:57;4.55;;;2.30;;
38332;SDS011;25748;46.670;14.272;2023-02-16T16:02:24;6.53;;;2.67;;
38332;SDS011;25748;46.670;14.272;2023-02-16T16:04:59;6.10;;;2.97;;
38332;SDS011;25748;46.670;14.272;2023-02-16T16:07:27;9.65;;;2.90;;
38332;SDS011;25748;46.670;14.272;2023-02-16T16:10:02;6.40;;;2.72;;
38332;SDS011;25748;46.670;14.272;2023-02-16T16:12:51;11.43;;;2.42;;
38332;SDS011;25748;46.670;14.272;2023-02-16T16:15:22;9.25;;;2.85;;
38332;SDS011;25748;46.670;14.272;2023-02-16T16:17:51;8.43;;;2.80;;
38332;SDS011;25748;46.670;14.272;2023-02-16T16:20:29;17.52;;;3.33;;
38332;SDS011;25748;46.670;14.272;2023-02-16T16:23:05;5.95;;;2.47;;
38332;SDS011;25748;46.670;14.272;2023-02-16T16:25:48;5.93;;;2.60;;
38332;SDS011;25748;46.670;14.272;2023-02-16T16:36:29;8.88;;;3.45;;
38332;SDS011;25748;46.670;14.272;2023-02-16T16:41:40;11.65;;;3.33;;
38332;SDS011;25748;46.670;14.272;2023-02-16T16:44:12;6.35;;;2.65;;
38332;SDS011;25748;46.670;14.272;2023-02-16T16:46:53;11.52;;;2.97;;
38332;SDS011;25748;46.670;14.272;2023-02-16T16:49:19;5.03;;;2.53;;
38332;SDS011;25748;46.670;14.272;2023-02-16T16:51:48;4.40;;;1.90;;
38332;SDS011;25748;46.670;14.272;2023-02-16T16:57:02;7.22;;;1.58;;
38332;SDS011;25748;46.670;14.272;2023-02-16T16:59:37;3.85;;;1.50;;
38332;SDS011;25748;46.670;14.272;2023-02-16T17:02:03;4.13;;;1.75;;
38332;SDS011;25748;46.670;14.272;2023-02-16T17:04:29;2.67;;;1.40;;
38332;SDS011;25748;46.670;14.272;2023-02-16T17:06:55;3.05;;;1.38;;
38332;SDS011;25748;46.670;14.272;2023-02-16T17:09:20;3.47;;;1.30;;
38332;SDS011;25748;46.670;14.272;2023-02-16T17:11:46;2.90;;;1.60;;
38332;SDS011;25748;46.670;14.272;2023-02-16T17:14:16;4.30;;;1.75;;
38332;SDS011;25748;46.670;14.272;2023-02-16T17:16:44;2.95;;;1.60;;
38332;SDS011;25748;46.670;14.272;2023-02-16T17:19:18;2.88;;;1.23;;
38332;SDS011;25748;46.670;14.272;2023-02-16T17:21:47;12.52;;;2.13;;
38332;SDS011;25748;46.670;14.272;2023-02-16T17:24:13;4.47;;;2.60;;
38332;SDS011;25748;46.670;14.272;2023-02-16T17:26:39;17.52;;;2.38;;
38332;SDS011;25748;46.670;14.272;2023-02-16T17:29:05;6.90;;;1.88;;
38332;SDS011;25748;46.670;14.272;2023-02-16T17:31:31;4.15;;;2.33;;
38332;SDS011;25748;46.670;14.272;2023-02-16T17:33:57;12.82;;;1.70;;
38332;SDS011;25748;46.670;14.272;2023-02-16T17:36:24;3.90;;;1.63;;
38332;SDS011;25748;46.670;14.272;2023-02-16T17:38:51;4.05;;;2.13;;
38332;SDS011;25748;46.670;14.272;2023-02-16T17:41:18;2.80;;;1.42;;
38332;SDS011;25748;46.670;14.272;2023-02-16T17:43:46;3.30;;;1.45;;
38332;SDS011;25748;46.670;14.272;2023-02-16T17:46:12;2.53;;;1.60;;
38332;SDS011;25748;46.670;14.272;2023-02-16T17:48:38;2.10;;;1.08;;
38332;SDS011;25748;46.670;14.272;2023-02-16T17:51:08;4.05;;;1.27;;
38332;SDS011;25748;46.670;14.272;2023-02-16T17:53:38;6.38;;;2.38;;
38332;SDS011;25748;46.670;14.272;2023-02-16T17:56:04;10.02;;;2.53;;
38332;SDS011;25748;46.670;14.272;2023-02-16T17:58:30;4.32;;;2.40;;
38332;SDS011;25748;46.670;14.272;2023-02-16T18:00:55;6.00;;;2.08;;
38332;SDS011;25748;46.670;14.272;2023-02-16T18:03:21;9.85;;;3.67;;
38332;SDS011;25748;46.670;14.272;2023-02-16T18:05:49;9.35;;;3.95;;
38332;SDS011;25748;46.670;14.272;2023-02-16T18:08:15;9.25;;;2.58;;
38332;SDS011;25748;46.670;14.272;2023-02-16T18:10:44;5.32;;;2.50;;
38332;SDS011;25748;46.670;14.272;2023-02-16T18:13:12;7.53;;;2.67;;
38332;SDS011;25748;46.670;14.272;2023-02-16T18:15:39;4.20;;;2.17;;
38332;SDS011;25748;46.670;14.272;2023-02-16T18:18:06;7.68;;;3.05;;
38332;SDS011;25748;46.670;14.272;2023-02-16T18:20:32;17.33;;;4.38;;
38332;SDS011;25748;46.670;14.272;2023-02-16T18:22:58;8.48;;;3.67;;
38332;SDS011;25748;46.670;14.272;2023-02-16T18:25:24;9.18;;;3.28;;
38332;SDS011;25748;46.670;14.272;2023-02-16T18:27:50;6.05;;;2.60;;
38332;SDS011;25748;46.670;14.272;2023-02-16T18:30:19;12.80;;;2.85;;
38332;SDS011;25748;46.670;14.272;2023-02-16T18:32:45;7.25;;;2.38;;
38332;SDS011;25748;46.670;14.272;2023-02-16T18:35:11;4.63;;;1.48;;
38332;SDS011;25748;46.670;14.272;2023-02-16T18:37:38;2.58;;;1.27;;
38332;SDS011;25748;46.670;14.272;2023-02-16T18:40:04;6.40;;;1.98;;